Arena, Wisconsin
Current Conditions -  °F | °C
As of 3:56 PM on Wednesday 28 Jan 2015 (Local Time) from KLNR Reporting Station
Clear Clear  
Wind Chill: 25°   Ceiling: Unl
Heat Index: 34°   Visibility: 10mi
Dew Point: 22°   Wind: 12mph
Humidity: 61%   Direction: 120°ESE
Pressure: 29.9"   Gusts: 24mph
Location:  43.17°N, 89.91°W
Report Text: KLNR 282156Z AUTO 12010G21KT 10SM CLR 01/M06 A2990 RMK AO2 SLP129 T00111056
Loading
Personal Weather Stations






























Interactive Weather Map New forecast layout! Learn more

10-Day Weather Forecast

Advertisements
Track Severe Weather on mobile